createdAt,value
2022-09-14T00:01:40.525Z,16.10
2022-09-14T00:04:18.634Z,16.10
2022-09-14T00:06:47.687Z,16.10
2022-09-14T00:09:22.503Z,16.10
2022-09-14T00:11:53.597Z,16.10
2022-09-14T00:14:21.704Z,16.00
2022-09-14T00:16:49.848Z,16.00
2022-09-14T00:19:28.943Z,15.90
2022-09-14T00:21:59.220Z,15.84
2022-09-14T00:24:32.694Z,15.80
2022-09-14T00:27:02.691Z,15.70
2022-09-14T00:29:31.558Z,15.70
2022-09-14T00:31:59.481Z,15.68
2022-09-14T00:34:27.998Z,15.60
2022-09-14T00:36:55.956Z,15.60
2022-09-14T00:39:24.981Z,15.50
2022-09-14T00:41:53.951Z,15.50
2022-09-14T00:44:24.832Z,15.40
2022-09-14T00:46:57.290Z,15.30
2022-09-14T00:49:36.002Z,15.30
2022-09-14T00:52:20.411Z,15.20
2022-09-14T00:54:52.285Z,15.10
2022-09-14T00:57:21.494Z,15.10
2022-09-14T00:59:53.086Z,15.02
2022-09-14T01:02:23.962Z,15.00
2022-09-14T01:04:52.611Z,15.00
2022-09-14T01:07:59.437Z,15.00
2022-09-14T01:11:03.466Z,14.96
2022-09-14T01:13:49.343Z,14.90
2022-09-14T01:16:39.466Z,14.90
2022-09-14T01:19:22.715Z,14.90
2022-09-14T01:21:52.904Z,14.90
2022-09-14T01:24:45.137Z,14.90
2022-09-14T01:27:34.562Z,14.90
2022-09-14T01:30:11.094Z,14.90
2022-09-14T01:33:08.689Z,14.90
2022-09-14T01:35:59.981Z,14.90
2022-09-14T01:38:42.111Z,14.90
2022-09-14T01:41:15.169Z,14.92
2022-09-14T01:43:49.458Z,15.00
2022-09-14T01:46:25.991Z,15.00
2022-09-14T01:49:03.112Z,15.00
2022-09-14T01:51:42.554Z,15.00
2022-09-14T01:54:19.650Z,15.00
2022-09-14T01:56:56.971Z,15.00
2022-09-14T01:59:36.452Z,15.10
2022-09-14T02:02:19.805Z,15.10
2022-09-14T02:05:10.597Z,15.10
2022-09-14T02:07:38.890Z,15.10
2022-09-14T02:10:11.772Z,15.10
2022-09-14T02:12:40.845Z,15.10
2022-09-14T02:15:12.315Z,15.10
2022-09-14T02:17:40.498Z,15.10
2022-09-14T02:20:19.059Z,15.10
2022-09-14T02:22:47.082Z,15.10
2022-09-14T02:25:14.974Z,15.08
2022-09-14T02:27:42.723Z,15.00
2022-09-14T02:30:14.340Z,15.00
2022-09-14T02:33:08.352Z,15.02
2022-09-14T02:35:50.625Z,15.00
2022-09-14T02:38:40.605Z,15.08
2022-09-14T02:41:49.004Z,15.04
2022-09-14T02:45:00.047Z,15.10
2022-09-14T02:48:08.060Z,15.10
2022-09-14T02:51:15.398Z,15.10
2022-09-14T02:54:01.641Z,15.10
2022-09-14T02:56:29.927Z,15.10
2022-09-14T02:58:58.005Z,15.12
2022-09-14T03:01:26.236Z,15.20
2022-09-14T03:03:54.156Z,15.20
2022-09-14T03:06:22.622Z,15.20
2022-09-14T03:08:50.615Z,15.20
2022-09-14T03:11:18.643Z,15.26
2022-09-14T03:13:46.980Z,15.30
2022-09-14T03:16:17.883Z,15.30
2022-09-14T03:18:45.902Z,15.30
2022-09-14T03:21:16.530Z,15.30
2022-09-14T03:23:51.200Z,15.30
2022-09-14T03:26:22.188Z,15.30
2022-09-14T03:28:56.248Z,15.38
2022-09-14T03:31:25.192Z,15.40
2022-09-14T03:33:59.505Z,15.40
2022-09-14T03:36:30.162Z,15.40
2022-09-14T03:39:01.844Z,15.40
2022-09-14T03:41:29.850Z,15.40
2022-09-14T03:43:57.690Z,15.40
2022-09-14T03:46:26.426Z,15.40
2022-09-14T03:48:56.105Z,15.40
2022-09-14T03:51:24.132Z,15.40
2022-09-14T03:53:52.539Z,15.30
2022-09-14T03:56:23.373Z,15.30
2022-09-14T03:58:51.928Z,15.30
2022-09-14T04:01:21.818Z,15.30
2022-09-14T04:03:50.297Z,15.26
2022-09-14T04:06:19.496Z,15.30
2022-09-14T04:08:47.975Z,15.24
2022-09-14T04:11:19.137Z,15.20
2022-09-14T04:13:47.778Z,15.12
2022-09-14T04:16:16.632Z,15.10
2022-09-14T04:18:44.910Z,15.10
2022-09-14T04:21:21.440Z,15.10
2022-09-14T04:26:40.574Z,15.02
2022-09-14T04:29:10.603Z,15.08
2022-09-14T04:31:38.822Z,15.10
2022-09-14T04:34:06.914Z,15.10
2022-09-14T04:36:34.956Z,15.10
2022-09-14T04:39:03.697Z,15.10
2022-09-14T04:41:31.844Z,15.20
2022-09-14T04:44:00.804Z,15.20
2022-09-14T04:46:37.221Z,15.30
2022-09-14T04:49:06.996Z,15.30
2022-09-14T04:51:35.959Z,15.30
2022-09-14T04:54:06.577Z,15.32
2022-09-14T04:56:36.989Z,15.40
2022-09-14T04:59:05.819Z,15.40
2022-09-14T05:01:43.516Z,15.40
2022-09-14T05:04:12.017Z,15.46
2022-09-14T05:06:42.145Z,15.50
2022-09-14T05:09:19.312Z,15.50
2022-09-14T05:11:47.601Z,15.58
2022-09-14T05:14:15.915Z,15.60
2022-09-14T05:16:44.458Z,15.60
2022-09-14T05:19:16.935Z,15.70
2022-09-14T05:21:46.780Z,15.70
2022-09-14T05:24:18.862Z,15.70
2022-09-14T05:26:47.491Z,15.74
2022-09-14T05:29:17.730Z,15.80
2022-09-14T05:31:46.228Z,15.90
2022-09-14T05:34:16.257Z,15.90
2022-09-14T05:36:44.019Z,15.92
2022-09-14T05:39:11.895Z,16.00
2022-09-14T05:41:39.740Z,16.00
2022-09-14T05:44:07.701Z,16.04
2022-09-14T05:46:35.739Z,16.10
2022-09-14T05:49:04.252Z,16.20
2022-09-14T05:51:32.648Z,16.30
2022-09-14T05:54:01.106Z,16.40
2022-09-14T05:56:31.766Z,16.40
2022-09-14T05:59:00.352Z,16.40
2022-09-14T06:01:31.183Z,16.40
2022-09-14T06:04:04.932Z,16.30
2022-09-14T06:06:33.732Z,16.30
2022-09-14T06:09:01.763Z,16.30
2022-09-14T06:11:33.483Z,16.20
2022-09-14T06:14:01.685Z,16.20
2022-09-14T06:16:29.928Z,16.10
2022-09-14T06:18:59.403Z,16.10
2022-09-14T06:21:31.251Z,16.00
2022-09-14T06:23:59.871Z,16.00
2022-09-14T06:26:27.825Z,15.98
2022-09-14T06:28:55.839Z,15.90
2022-09-14T06:31:25.500Z,16.00
2022-09-14T06:33:54.051Z,16.00
2022-09-14T06:36:24.659Z,16.00
2022-09-14T06:38:52.962Z,15.96
2022-09-14T06:41:24.170Z,16.00
2022-09-14T06:43:52.364Z,15.96
2022-09-14T06:46:27.134Z,16.00
2022-09-14T06:49:03.055Z,15.90
2022-09-14T06:51:33.662Z,15.90
2022-09-14T06:54:02.677Z,15.90
2022-09-14T06:56:36.491Z,15.90
2022-09-14T06:59:07.092Z,15.94
2022-09-14T07:01:35.620Z,16.00
2022-09-14T07:04:04.498Z,16.10
2022-09-14T07:06:39.833Z,16.10
2022-09-14T07:09:07.809Z,16.10
2022-09-14T07:11:36.398Z,16.10
2022-09-14T07:14:05.544Z,16.10
2022-09-14T07:16:36.613Z,16.18
2022-09-14T07:19:10.698Z,16.20
2022-09-14T07:21:39.284Z,16.20
2022-09-14T07:24:07.863Z,16.30
2022-09-14T07:26:40.388Z,16.40
2022-09-14T07:29:18.846Z,16.60
2022-09-14T07:31:50.552Z,17.26
2022-09-14T07:34:19.392Z,17.80
2022-09-14T07:36:47.293Z,18.40
2022-09-14T07:39:17.232Z,18.80
2022-09-14T07:41:45.513Z,19.02
2022-09-14T07:44:15.365Z,18.80
2022-09-14T07:46:45.389Z,18.80
2022-09-14T07:49:15.715Z,18.90
2022-09-14T07:51:44.438Z,18.84
2022-09-14T07:54:15.438Z,18.90
2022-09-14T07:56:44.690Z,18.90
2022-09-14T07:59:35.112Z,18.90
2022-09-14T08:02:07.110Z,18.90
2022-09-14T08:04:36.319Z,18.98
2022-09-14T08:07:05.274Z,18.90
2022-09-14T08:09:33.345Z,18.70
2022-09-14T08:12:01.259Z,18.60
2022-09-14T08:14:29.022Z,18.40
2022-09-14T08:16:57.331Z,18.40
2022-09-14T08:19:25.544Z,18.32
2022-09-14T08:21:53.300Z,18.30
2022-09-14T08:24:21.726Z,18.30
2022-09-14T08:26:49.894Z,18.24
2022-09-14T08:29:19.465Z,18.14
2022-09-14T08:31:49.067Z,18.30
2022-09-14T08:34:17.771Z,18.40
2022-09-14T08:36:47.286Z,18.40
2022-09-14T08:39:16.909Z,18.50
2022-09-14T08:41:52.847Z,18.60
2022-09-14T08:44:42.021Z,18.80
2022-09-14T08:47:13.564Z,19.10
2022-09-14T08:50:06.461Z,19.10
2022-09-14T08:52:50.590Z,19.00
2022-09-14T08:56:00.483Z,18.88
2022-09-14T08:59:08.812Z,18.90
2022-09-14T09:01:59.929Z,18.70
2022-09-14T09:04:36.233Z,18.50
2022-09-14T09:07:23.774Z,18.60
2022-09-14T09:09:55.051Z,18.90
2022-09-14T09:12:42.303Z,19.00
2022-09-14T09:15:37.772Z,18.90
2022-09-14T09:18:18.909Z,18.94
2022-09-14T09:20:54.713Z,18.90
2022-09-14T09:23:25.631Z,19.00
2022-09-14T09:26:10.423Z,19.00
2022-09-14T09:28:49.917Z,19.08
2022-09-14T09:31:22.511Z,19.20
2022-09-14T09:34:07.601Z,19.18
2022-09-14T09:36:42.673Z,19.10
2022-09-14T09:39:12.450Z,19.30
2022-09-14T09:42:03.230Z,19.20
2022-09-14T09:45:02.491Z,19.30
2022-09-14T09:47:37.524Z,19.30
2022-09-14T09:50:19.230Z,19.30
2022-09-14T09:53:03.250Z,19.20
2022-09-14T09:55:39.947Z,19.26
2022-09-14T09:58:29.714Z,19.10
2022-09-14T10:01:26.550Z,19.10
2022-09-14T10:04:21.778Z,19.20
2022-09-14T10:06:53.253Z,19.30
2022-09-14T10:09:27.059Z,19.54
2022-09-14T10:12:04.490Z,19.60
2022-09-14T10:14:36.368Z,19.70
2022-09-14T10:17:25.235Z,19.86
2022-09-14T10:19:55.243Z,19.80
2022-09-14T10:22:34.616Z,19.78
2022-09-14T10:25:22.716Z,19.60
2022-09-14T10:27:56.262Z,19.68
2022-09-14T10:30:51.104Z,19.70
2022-09-14T10:33:19.851Z,19.70
2022-09-14T10:35:56.726Z,19.80
2022-09-14T10:39:07.953Z,19.90
2022-09-14T10:42:12.339Z,20.00
2022-09-14T10:45:05.305Z,20.10
2022-09-14T10:48:11.138Z,20.02
2022-09-14T10:51:14.099Z,20.10
2022-09-14T10:54:15.000Z,20.10
2022-09-14T10:57:05.574Z,20.20
2022-09-14T11:00:01.383Z,20.10
2022-09-14T11:02:46.340Z,20.06
2022-09-14T11:05:43.912Z,20.00
2022-09-14T11:08:28.492Z,19.90
2022-09-14T11:11:45.979Z,19.90
2022-09-14T11:14:39.707Z,19.76
2022-09-14T11:17:36.768Z,19.62
2022-09-14T11:20:26.939Z,19.62
2022-09-14T11:23:22.293Z,19.70
2022-09-14T11:26:02.832Z,19.80
2022-09-14T11:28:55.390Z,19.90
2022-09-14T11:31:37.265Z,19.72
2022-09-14T11:34:33.271Z,19.70
2022-09-14T11:37:12.212Z,19.80
2022-09-14T11:39:45.979Z,19.80
2022-09-14T11:42:30.792Z,19.80
2022-09-14T11:45:06.908Z,19.82
2022-09-14T11:47:43.251Z,19.92
2022-09-14T11:50:21.277Z,20.10
2022-09-14T11:52:58.455Z,20.32
2022-09-14T11:55:26.848Z,20.40
2022-09-14T11:57:55.007Z,20.54
2022-09-14T12:00:25.857Z,20.70
2022-09-14T12:03:40.393Z,20.80
2022-09-14T12:06:30.085Z,20.90
2022-09-14T12:09:20.970Z,20.90
2022-09-14T12:11:50.707Z,20.98
2022-09-14T12:14:24.350Z,21.00
2022-09-14T12:17:39.904Z,21.10
2022-09-14T12:20:30.215Z,21.40
2022-09-14T12:23:39.551Z,21.60
2022-09-14T12:26:10.353Z,21.80
2022-09-14T12:28:40.204Z,21.94
2022-09-14T12:31:14.020Z,22.10
2022-09-14T12:33:44.017Z,22.00
2022-09-14T12:36:20.776Z,22.10
2022-09-14T12:38:53.085Z,22.10
2022-09-14T12:41:20.940Z,22.30
2022-09-14T12:43:49.137Z,22.20
2022-09-14T12:46:19.999Z,22.08
2022-09-14T12:48:47.812Z,22.00
2022-09-14T12:51:31.541Z,22.10
2022-09-14T12:54:11.779Z,21.82
2022-09-14T12:57:16.368Z,21.90
2022-09-14T13:00:16.866Z,22.10
2022-09-14T13:03:06.503Z,22.20
2022-09-14T13:05:34.972Z,22.42
2022-09-14T13:08:12.604Z,22.70
2022-09-14T13:10:47.522Z,22.80
2022-09-14T13:13:23.980Z,22.86
2022-09-14T13:16:00.996Z,23.02
2022-09-14T13:18:30.851Z,23.10
2022-09-14T13:21:18.057Z,23.18
2022-09-14T13:23:46.523Z,23.20
2022-09-14T13:26:26.199Z,23.10
2022-09-14T13:28:56.091Z,23.10
2022-09-14T13:31:35.037Z,23.28
2022-09-14T13:34:04.945Z,23.40
2022-09-14T13:36:43.587Z,23.40
2022-09-14T13:39:33.356Z,23.20
2022-09-14T13:42:02.602Z,23.20
2022-09-14T13:44:42.182Z,23.10
2022-09-14T13:47:13.547Z,23.00
2022-09-14T13:49:44.256Z,22.86
2022-09-14T13:52:43.080Z,22.70
2022-09-14T13:55:42.986Z,22.70
2022-09-14T13:58:21.451Z,22.70
2022-09-14T14:01:00.121Z,22.52
2022-09-14T14:03:33.721Z,22.40
2022-09-14T14:06:20.462Z,22.40
2022-09-14T14:09:08.151Z,22.22
2022-09-14T14:11:42.040Z,22.08
2022-09-14T14:14:17.212Z,21.80
2022-09-14T14:17:13.420Z,21.58
2022-09-14T14:19:43.028Z,21.40
2022-09-14T14:22:13.785Z,21.10
2022-09-14T14:25:09.264Z,21.10
2022-09-14T14:27:36.159Z,21.00
2022-09-14T14:30:17.449Z,20.90
2022-09-14T14:33:00.819Z,20.90
2022-09-14T14:35:31.628Z,21.08
2022-09-14T14:37:59.629Z,21.20
2022-09-14T14:40:27.941Z,21.20
2022-09-14T14:42:58.430Z,21.18
2022-09-14T14:45:27.525Z,21.30
2022-09-14T14:47:56.220Z,21.20
2022-09-14T14:50:33.810Z,21.20
2022-09-14T14:53:03.515Z,21.10
2022-09-14T14:55:32.868Z,21.00
2022-09-14T14:58:04.572Z,20.90
2022-09-14T15:00:35.928Z,20.90
2022-09-14T15:03:03.873Z,20.90
2022-09-14T15:05:32.380Z,20.70
2022-09-14T15:08:00.462Z,20.70
2022-09-14T15:10:30.581Z,20.60
2022-09-14T15:12:58.432Z,20.60
2022-09-14T15:15:27.032Z,20.50
2022-09-14T15:17:54.959Z,20.60
2022-09-14T15:20:23.233Z,20.60
2022-09-14T15:22:51.533Z,20.50
2022-09-14T15:25:21.153Z,20.40
2022-09-14T15:27:49.614Z,20.40
2022-09-14T15:30:17.788Z,20.32
2022-09-14T15:32:45.487Z,20.30
2022-09-14T15:35:14.772Z,20.30
2022-09-14T15:37:43.124Z,20.20
2022-09-14T15:40:12.021Z,20.10
2022-09-14T15:42:40.301Z,20.00
2022-09-14T15:45:09.437Z,19.90
2022-09-14T15:47:37.469Z,19.80
2022-09-14T15:50:06.517Z,19.70
2022-09-14T15:52:37.217Z,19.70
2022-09-14T15:55:08.642Z,19.60
2022-09-14T15:57:38.615Z,19.60
2022-09-14T16:00:11.572Z,19.50
2022-09-14T16:02:43.931Z,19.50
2022-09-14T16:05:13.088Z,19.50
2022-09-14T16:07:41.606Z,19.40
2022-09-14T16:10:10.291Z,19.40
2022-09-14T16:12:38.084Z,19.40
2022-09-14T16:15:07.921Z,19.30
2022-09-14T16:17:35.679Z,19.20
2022-09-14T16:20:05.586Z,19.20
2022-09-14T16:22:33.390Z,19.10
2022-09-14T16:25:01.268Z,19.10
2022-09-14T16:27:29.231Z,19.00
2022-09-14T16:29:57.039Z,19.00
2022-09-14T16:32:24.906Z,18.96
2022-09-14T16:34:52.675Z,18.90
2022-09-14T16:37:21.116Z,18.90
2022-09-14T16:39:49.609Z,18.80
2022-09-14T16:42:18.319Z,18.80
2022-09-14T16:44:46.178Z,18.70
2022-09-14T16:47:14.029Z,18.70
2022-09-14T16:49:41.959Z,18.60
2022-09-14T16:52:09.825Z,18.60
2022-09-14T16:54:37.632Z,18.60
2022-09-14T16:57:05.537Z,18.50
2022-09-14T16:59:33.426Z,18.50
2022-09-14T17:02:02.590Z,18.50
2022-09-14T17:04:30.566Z,18.50
2022-09-14T17:06:58.502Z,18.40
2022-09-14T17:09:30.217Z,18.40
2022-09-14T17:11:58.838Z,18.30
2022-09-14T17:14:32.351Z,18.30
2022-09-14T17:17:00.726Z,18.30
2022-09-14T17:19:28.490Z,18.30
2022-09-14T17:21:56.567Z,18.20
2022-09-14T17:24:26.063Z,18.20
2022-09-14T17:26:53.961Z,18.10
2022-09-14T17:29:21.859Z,18.10
2022-09-14T17:31:50.770Z,18.00
2022-09-14T17:34:18.951Z,18.00
2022-09-14T17:36:46.799Z,18.00
2022-09-14T17:39:15.720Z,17.90
2022-09-14T17:41:44.423Z,17.90
2022-09-14T17:44:15.191Z,17.80
2022-09-14T17:46:52.741Z,17.76
2022-09-14T17:49:23.075Z,17.70
2022-09-14T17:51:52.096Z,17.70
2022-09-14T17:54:21.338Z,17.70
2022-09-14T17:56:50.103Z,17.68
2022-09-14T17:59:20.818Z,17.60
2022-09-14T18:01:50.136Z,17.60
2022-09-14T18:04:18.937Z,17.60
2022-09-14T18:06:48.385Z,17.60
2022-09-14T18:09:20.188Z,17.60
2022-09-14T18:11:49.564Z,17.50
2022-09-14T18:14:17.845Z,17.50
2022-09-14T18:16:46.205Z,17.42
2022-09-14T18:19:14.692Z,17.40
2022-09-14T18:21:43.515Z,17.40
2022-09-14T18:24:12.267Z,17.40
2022-09-14T18:26:41.022Z,17.30
2022-09-14T18:29:14.760Z,17.30
2022-09-14T18:31:43.683Z,17.30
2022-09-14T18:34:11.543Z,17.20
2022-09-14T18:36:39.481Z,17.20
2022-09-14T18:39:07.350Z,17.20
2022-09-14T18:41:35.185Z,17.20
2022-09-14T18:44:03.688Z,17.16
2022-09-14T18:46:31.970Z,17.10
2022-09-14T18:49:01.071Z,17.10
2022-09-14T18:51:31.169Z,17.10
2022-09-14T18:54:05.587Z,17.00
2022-09-14T18:56:35.662Z,17.00
2022-09-14T18:59:06.081Z,17.00
2022-09-14T19:01:35.988Z,16.94
2022-09-14T19:04:06.675Z,16.90
2022-09-14T19:06:37.177Z,16.90
2022-09-14T19:09:06.827Z,16.84
2022-09-14T19:11:36.004Z,16.80
2022-09-14T19:14:11.037Z,16.80
2022-09-14T19:16:41.513Z,16.80
2022-09-14T19:19:13.354Z,16.78
2022-09-14T19:21:43.132Z,16.72
2022-09-14T19:24:15.121Z,16.70
2022-09-14T19:26:48.717Z,16.70
2022-09-14T19:29:22.633Z,16.60
2022-09-14T19:31:52.268Z,16.60
2022-09-14T19:34:24.294Z,16.54
2022-09-14T19:36:53.933Z,16.50
2022-09-14T19:39:24.363Z,16.50
2022-09-14T19:41:52.741Z,16.50
2022-09-14T19:44:22.355Z,16.50
2022-09-14T19:46:51.246Z,16.42
2022-09-14T19:49:23.821Z,16.40
2022-09-14T19:51:52.976Z,16.40
2022-09-14T19:54:20.945Z,16.40
2022-09-14T19:56:49.025Z,16.36
2022-09-14T19:59:17.052Z,16.32
2022-09-14T20:01:45.839Z,16.30
2022-09-14T20:04:15.829Z,16.30
2022-09-14T20:06:46.057Z,16.30
2022-09-14T20:09:22.649Z,16.24
2022-09-14T20:11:52.675Z,16.20
2022-09-14T20:14:25.190Z,16.20
2022-09-14T20:16:57.559Z,16.20
2022-09-14T20:19:28.496Z,16.20
2022-09-14T20:21:57.483Z,16.16
2022-09-14T20:24:28.686Z,16.10
2022-09-14T20:27:00.425Z,16.10
2022-09-14T20:29:32.123Z,16.10
2022-09-14T20:32:00.210Z,16.06
2022-09-14T20:34:30.583Z,16.08
2022-09-14T20:37:00.248Z,16.10
2022-09-14T20:39:29.560Z,16.10
2022-09-14T20:41:57.413Z,16.10
2022-09-14T20:44:25.213Z,16.10
2022-09-14T20:46:53.102Z,16.10
2022-09-14T20:49:23.858Z,16.10
2022-09-14T20:51:52.822Z,16.04
2022-09-14T20:54:22.009Z,16.00
2022-09-14T20:56:50.335Z,16.00
2022-09-14T20:59:19.836Z,16.00
2022-09-14T21:01:49.743Z,15.92
2022-09-14T21:04:23.263Z,15.90
2022-09-14T21:06:55.311Z,15.90
2022-09-14T21:09:26.520Z,15.90
2022-09-14T21:11:54.783Z,15.90
2022-09-14T21:14:22.844Z,15.90
2022-09-14T21:16:56.618Z,15.90
2022-09-14T21:19:28.109Z,15.90
2022-09-14T21:21:56.593Z,15.90
2022-09-14T21:24:24.865Z,15.90
2022-09-14T21:26:52.724Z,15.90
2022-09-14T21:29:24.016Z,15.90
2022-09-14T21:31:53.054Z,15.90
2022-09-14T21:34:21.527Z,15.90
2022-09-14T21:36:51.910Z,15.90
2022-09-14T21:39:25.074Z,15.90
2022-09-14T21:41:58.751Z,15.90
2022-09-14T21:44:35.941Z,15.90
2022-09-14T21:47:04.907Z,15.90
2022-09-14T21:49:33.019Z,15.90
2022-09-14T21:52:01.037Z,15.90
2022-09-14T21:54:28.924Z,15.90
2022-09-14T21:56:56.999Z,15.90
2022-09-14T21:59:25.070Z,15.90
2022-09-14T22:01:53.713Z,15.90
2022-09-14T22:04:26.320Z,15.80
2022-09-14T22:06:55.149Z,15.80
2022-09-14T22:09:26.911Z,15.80
2022-09-14T22:11:56.680Z,15.80
2022-09-14T22:14:28.323Z,15.72
2022-09-14T22:16:56.270Z,15.70
2022-09-14T22:19:30.521Z,15.70
2022-09-14T22:21:58.658Z,15.70
2022-09-14T22:24:38.142Z,15.70
2022-09-14T22:27:09.244Z,15.80
2022-09-14T22:29:40.946Z,15.80
2022-09-14T22:32:12.142Z,15.80
2022-09-14T22:34:49.319Z,15.80
2022-09-14T22:37:17.968Z,15.80
2022-09-14T22:39:46.933Z,15.80
2022-09-14T22:42:14.901Z,15.78
2022-09-14T22:44:42.749Z,15.70
2022-09-14T22:47:10.542Z,15.70
2022-09-14T22:49:38.317Z,15.70
2022-09-14T22:52:06.080Z,15.68
2022-09-14T22:54:33.994Z,15.62
2022-09-14T22:57:01.780Z,15.60
2022-09-14T22:59:29.699Z,15.60
2022-09-14T23:01:57.600Z,15.60
2022-09-14T23:04:27.604Z,15.60
2022-09-14T23:06:55.495Z,15.60
2022-09-14T23:09:23.209Z,15.60
2022-09-14T23:11:51.039Z,15.60
2022-09-14T23:14:18.871Z,15.60
2022-09-14T23:16:46.780Z,15.60
2022-09-14T23:19:18.160Z,15.60
2022-09-14T23:21:46.622Z,15.60
2022-09-14T23:24:14.942Z,15.58
2022-09-14T23:26:43.173Z,15.50
2022-09-14T23:29:15.060Z,15.50
2022-09-14T23:31:43.072Z,15.50
2022-09-14T23:34:11.018Z,15.50
2022-09-14T23:36:38.816Z,15.50
2022-09-14T23:39:06.698Z,15.50
2022-09-14T23:41:34.531Z,15.50
2022-09-14T23:44:02.789Z,15.50
2022-09-14T23:46:30.666Z,15.50
2022-09-14T23:48:58.613Z,15.50
2022-09-14T23:51:26.552Z,15.50
2022-09-14T23:53:54.352Z,15.50
2022-09-14T23:56:22.730Z,15.50
2022-09-14T23:58:50.586Z,15.50
